Airport ID:KRTS
Update Time (UTC):18 NOV 17 06:10
Wind Speed (Knots):3
Wind Direction (Magnetic):320
Temperature (°C):-3
Dew Point (°C):-6
Humidity (%):77
Altimeter (inHg):30.33
Density Altitude (Feet):
Visibility (Miles):10
Clouds (Hundreds of feet):CLR
Present Weather:NO PRECIPITATION
METAR:METAR KRTS 180610Z AUTO 35003KT 10SM CLR M03/M06 A3033 RMK AO2

The data displayed is for advisory purposes only and is not to be used for flight planning or operations.

This page is not automatically refreshed. Reload the page to see current data.